Terminal Aerodrome Forecast
Issued by NWS

Current Version | Previous Version | Graphics & Text | Print | Product List | Glossary On
Versions: 1 2 3 4 5 6 7 8 9 10 11 12 13 14 15 16 17 18 19 20 21 22 23 24 25 26 27 28 29
883
FTUS41 KILN 290120 AAB
TAFLUK
TAF AMD
KLUK 290120Z 2901/2924 13006KT 3SM -SHRA VCTS OVC050CB
      TEMPO 2901/2903 27015G35KT 2SM TSRA OVC025CB
     FM290300 19007KT 3SM -SHRA VCTS OVC050CB
     FM290500 06004KT 2SM SHRA VCTS OVC025CB
      TEMPO 2905/2909 TSRA OVC015CB
     FM291000 04004KT P6SM -SHRA VCTS BKN015CB OVC025
     FM291300 20009KT P6SM VCSH OVC025
     FM291600 20007KT P6SM SCT035=

USA.gov is the U.S. government's official web portal to all federal, state and local government web resources and services.